South Canaan, Pennsylvania
Current Conditions -  °F | °C
As of 5:43 AM on Wednesday 22 Oct 2014 (Local Time) from KAVP Reporting Station
Overcast Overcast  
Wind Chill: 51°   Ceiling: 2000
Heat Index: 51°   Visibility: 10mi
Dew Point: 49°   Wind: 5mph
Humidity: 92%   Direction: 40°NE
Pressure: 29.95"   Gusts: NA
Location:  41.51°N, 75.41°W
Report Text: KAVP 220943Z AUTO 04004KT 10SM BKN020 OVC033 11/09 A2995 RMK AO2 T01060094
Loading
Personal Weather Stations






























Interactive Weather Map
Tropical Storm Tracking
New forecast layout! Learn more

10-Day Weather Forecast

Advertisements
Track Severe Weather on mobile